Terminal Aerodrome Forecast
Issued by NWS

Home | Current Version | Previous Version | Text Only | Print | Product List | Glossary Off
Versions: 1 2 3 4 5 6 7 8 9 10 11 12 13 14 15 16 17 18 19 20 21 22 23 24 25 26 27 28 29 30 31 32 33

000
FTUS43 KLOT 300305 AAA
TAFMDW
TAF AMD
KMDW 300305Z 3003/3024 VRB03KT P6SM FEW100 BKN250
     FM300700 27005KT 6SM BR SCT010 BKN035
      TEMPO 3007/3009 3SM SHRA BR BKN010
     FM300900 28005KT 4SM BR OVC020
     FM301400 29009KT P6SM BKN035
     FM301800 33010KT P6SM VCSH BKN045
     FM302200 02010KT P6SM SCT050=

USA.gov is the U.S. government's official web portal to all federal, state and local government web resources and services.